sensor_id;sensor_type;location;lat;lon;timestamp;pressure;altitude;pressure_sealevel;temperature;humidity
61478;BME280;47345;52.334;10.392;2023-04-08T00:01:47;101521.83;;;6.20;81.30
61478;BME280;47345;52.334;10.392;2023-04-08T00:04:18;101518.94;;;6.17;81.39
61478;BME280;47345;52.334;10.392;2023-04-08T00:06:49;101524.95;;;6.14;81.74
61478;BME280;47345;52.334;10.392;2023-04-08T00:09:20;101524.13;;;6.12;81.95
61478;BME280;47345;52.334;10.392;2023-04-08T00:11:52;101521.89;;;6.13;82.32
61478;BME280;47345;52.334;10.392;2023-04-08T00:14:23;101522.00;;;6.13;82.24
61478;BME280;47345;52.334;10.392;2023-04-08T00:16:53;101522.45;;;6.12;82.50
61478;BME280;47345;52.334;10.392;2023-04-08T00:19:24;101517.67;;;6.17;82.75
61478;BME280;47345;52.334;10.392;2023-04-08T00:21:54;101517.02;;;6.19;82.60
61478;BME280;47345;52.334;10.392;2023-04-08T00:24:25;101520.36;;;6.22;82.75
61478;BME280;47345;52.334;10.392;2023-04-08T00:26:56;101511.14;;;6.24;82.57
61478;BME280;47345;52.334;10.392;2023-04-08T00:29:26;101512.36;;;6.24;82.52
61478;BME280;47345;52.334;10.392;2023-04-08T00:31:57;101509.40;;;6.23;82.58
61478;BME280;47345;52.334;10.392;2023-04-08T00:34:28;101512.34;;;6.25;82.83
61478;BME280;47345;52.334;10.392;2023-04-08T00:36:58;101518.41;;;6.25;82.88
61478;BME280;47345;52.334;10.392;2023-04-08T00:39:29;101521.98;;;6.26;82.95
61478;BME280;47345;52.334;10.392;2023-04-08T00:41:59;101527.67;;;6.27;83.03
61478;BME280;47345;52.334;10.392;2023-04-08T00:44:30;101530.55;;;6.26;82.86
61478;BME280;47345;52.334;10.392;2023-04-08T00:47:01;101525.90;;;6.23;83.06
61478;BME280;47345;52.334;10.392;2023-04-08T00:49:33;101525.14;;;6.20;83.12
61478;BME280;47345;52.334;10.392;2023-04-08T00:52:03;101527.20;;;6.15;83.16
61478;BME280;47345;52.334;10.392;2023-04-08T00:54:36;101529.82;;;6.10;83.41
61478;BME280;47345;52.334;10.392;2023-04-08T00:57:08;101524.33;;;6.07;83.74
61478;BME280;47345;52.334;10.392;2023-04-08T00:59:39;101518.78;;;6.06;83.76
61478;BME280;47345;52.334;10.392;2023-04-08T01:02:17;101516.95;;;6.06;84.00
61478;BME280;47345;52.334;10.392;2023-04-08T01:04:57;101517.09;;;6.07;84.05
61478;BME280;47345;52.334;10.392;2023-04-08T01:07:31;101507.99;;;6.07;84.11
61478;BME280;47345;52.334;10.392;2023-04-08T01:10:04;101504.77;;;6.07;84.24
61478;BME280;47345;52.334;10.392;2023-04-08T01:12:42;101491.83;;;6.07;84.43
61478;BME280;47345;52.334;10.392;2023-04-08T01:15:11;101484.87;;;6.07;84.59
61478;BME280;47345;52.334;10.392;2023-04-08T01:17:43;101483.92;;;6.03;84.71
61478;BME280;47345;52.334;10.392;2023-04-08T01:20:16;101494.14;;;6.02;84.69
61478;BME280;47345;52.334;10.392;2023-04-08T01:23:05;101498.27;;;6.01;85.03
61478;BME280;47345;52.334;10.392;2023-04-08T01:28:12;101495.09;;;6.00;85.11
61478;BME280;47345;52.334;10.392;2023-04-08T01:30:45;101492.87;;;5.99;85.17
61478;BME280;47345;52.334;10.392;2023-04-08T01:33:17;101494.55;;;5.98;85.29
61478;BME280;47345;52.334;10.392;2023-04-08T01:35:51;101500.19;;;5.98;85.37
61478;BME280;47345;52.334;10.392;2023-04-08T01:38:25;101499.55;;;5.99;85.43
61478;BME280;47345;52.334;10.392;2023-04-08T01:40:55;101502.45;;;6.01;85.42
61478;BME280;47345;52.334;10.392;2023-04-08T01:43:27;101494.31;;;6.01;85.47
61478;BME280;47345;52.334;10.392;2023-04-08T01:46:00;101495.98;;;6.00;85.46
61478;BME280;47345;52.334;10.392;2023-04-08T01:48:31;101498.11;;;5.99;85.73
61478;BME280;47345;52.334;10.392;2023-04-08T01:51:04;101499.35;;;5.96;85.58
61478;BME280;47345;52.334;10.392;2023-04-08T01:53:35;101501.04;;;5.95;85.72
61478;BME280;47345;52.334;10.392;2023-04-08T01:56:08;101506.69;;;5.95;85.87
61478;BME280;47345;52.334;10.392;2023-04-08T01:58:42;101505.20;;;5.95;85.73
61478;BME280;47345;52.334;10.392;2023-04-08T02:01:19;101500.08;;;5.95;85.81
61478;BME280;47345;52.334;10.392;2023-04-08T02:03:51;101501.46;;;5.96;85.79
61478;BME280;47345;52.334;10.392;2023-04-08T02:06:24;101498.77;;;5.96;85.84
61478;BME280;47345;52.334;10.392;2023-04-08T02:08:56;101496.91;;;5.96;85.75
61478;BME280;47345;52.334;10.392;2023-04-08T02:11:26;101497.32;;;5.96;85.77
61478;BME280;47345;52.334;10.392;2023-04-08T02:13:57;101502.64;;;5.95;85.69
61478;BME280;47345;52.334;10.392;2023-04-08T02:16:33;101505.25;;;5.95;85.90
61478;BME280;47345;52.334;10.392;2023-04-08T02:19:10;101504.94;;;5.94;86.03
61478;BME280;47345;52.334;10.392;2023-04-08T02:21:47;101509.38;;;5.93;85.99
61478;BME280;47345;52.334;10.392;2023-04-08T02:24:19;101508.95;;;5.91;86.05
61478;BME280;47345;52.334;10.392;2023-04-08T02:26:51;101508.13;;;5.89;86.24
61478;BME280;47345;52.334;10.392;2023-04-08T02:29:22;101512.73;;;5.88;86.30
61478;BME280;47345;52.334;10.392;2023-04-08T02:31:53;101515.17;;;5.87;86.39
61478;BME280;47345;52.334;10.392;2023-04-08T02:34:25;101512.73;;;5.87;86.60
61478;BME280;47345;52.334;10.392;2023-04-08T02:36:56;101507.31;;;5.88;86.59
61478;BME280;47345;52.334;10.392;2023-04-08T02:39:32;101507.93;;;5.89;86.62
61478;BME280;47345;52.334;10.392;2023-04-08T02:42:02;101511.36;;;5.89;86.62
61478;BME280;47345;52.334;10.392;2023-04-08T02:44:33;101515.08;;;5.90;86.70
61478;BME280;47345;52.334;10.392;2023-04-08T02:47:03;101517.55;;;5.91;86.70
61478;BME280;47345;52.334;10.392;2023-04-08T02:49:34;101519.59;;;5.92;86.70
61478;BME280;47345;52.334;10.392;2023-04-08T02:52:04;101523.95;;;5.92;86.72
61478;BME280;47345;52.334;10.392;2023-04-08T02:54:35;101526.02;;;5.93;86.92
61478;BME280;47345;52.334;10.392;2023-04-08T02:57:06;101532.15;;;5.91;86.86
61478;BME280;47345;52.334;10.392;2023-04-08T02:59:37;101533.88;;;5.90;87.10
61478;BME280;47345;52.334;10.392;2023-04-08T03:02:09;101523.55;;;5.90;87.19
61478;BME280;47345;52.334;10.392;2023-04-08T03:04:39;101529.36;;;5.90;87.28
61478;BME280;47345;52.334;10.392;2023-04-08T03:07:10;101529.13;;;5.91;87.41
61478;BME280;47345;52.334;10.392;2023-04-08T03:09:40;101528.38;;;5.91;87.34
61478;BME280;47345;52.334;10.392;2023-04-08T03:12:11;101530.08;;;5.92;87.44
61478;BME280;47345;52.334;10.392;2023-04-08T03:14:42;101534.09;;;5.92;87.48
61478;BME280;47345;52.334;10.392;2023-04-08T03:17:13;101537.48;;;5.91;87.42
61478;BME280;47345;52.334;10.392;2023-04-08T03:19:44;101532.41;;;5.90;87.54
61478;BME280;47345;52.334;10.392;2023-04-08T03:22:14;101532.95;;;5.90;87.50
61478;BME280;47345;52.334;10.392;2023-04-08T03:24:45;101533.48;;;5.91;87.47
61478;BME280;47345;52.334;10.392;2023-04-08T03:27:15;101530.80;;;5.92;87.48
61478;BME280;47345;52.334;10.392;2023-04-08T03:29:46;101537.02;;;5.94;87.39
61478;BME280;47345;52.334;10.392;2023-04-08T03:32:17;101534.95;;;5.94;87.34
61478;BME280;47345;52.334;10.392;2023-04-08T03:34:48;101538.05;;;5.96;87.49
61478;BME280;47345;52.334;10.392;2023-04-08T03:37:19;101535.96;;;5.97;87.36
61478;BME280;47345;52.334;10.392;2023-04-08T03:39:50;101536.04;;;5.98;87.18
61478;BME280;47345;52.334;10.392;2023-04-08T03:42:20;101536.23;;;5.96;87.11
61478;BME280;47345;52.334;10.392;2023-04-08T03:44:51;101526.84;;;5.94;87.22
61478;BME280;47345;52.334;10.392;2023-04-08T03:47:22;101530.83;;;5.92;87.21
61478;BME280;47345;52.334;10.392;2023-04-08T03:49:54;101532.63;;;5.92;87.26
61478;BME280;47345;52.334;10.392;2023-04-08T03:52:24;101538.77;;;5.90;87.30
61478;BME280;47345;52.334;10.392;2023-04-08T03:54:55;101535.83;;;5.89;87.36
61478;BME280;47345;52.334;10.392;2023-04-08T03:57:26;101533.41;;;5.88;87.58
61478;BME280;47345;52.334;10.392;2023-04-08T03:59:56;101537.04;;;5.88;87.53
61478;BME280;47345;52.334;10.392;2023-04-08T04:02:27;101541.79;;;5.87;87.49
61478;BME280;47345;52.334;10.392;2023-04-08T04:04:58;101539.48;;;5.87;87.49
61478;BME280;47345;52.334;10.392;2023-04-08T04:07:29;101542.56;;;5.87;87.56
61478;BME280;47345;52.334;10.392;2023-04-08T04:10:00;101545.41;;;5.87;87.58
61478;BME280;47345;52.334;10.392;2023-04-08T04:12:30;101543.48;;;5.87;87.63
61478;BME280;47345;52.334;10.392;2023-04-08T04:15:01;101546.81;;;5.88;87.68
61478;BME280;47345;52.334;10.392;2023-04-08T04:17:32;101547.80;;;5.89;87.67
61478;BME280;47345;52.334;10.392;2023-04-08T04:20:04;101553.00;;;5.89;87.60
61478;BME280;47345;52.334;10.392;2023-04-08T04:22:35;101557.73;;;5.89;87.60
61478;BME280;47345;52.334;10.392;2023-04-08T04:25:07;101558.98;;;5.89;87.61
61478;BME280;47345;52.334;10.392;2023-04-08T04:27:38;101556.91;;;5.88;87.68
61478;BME280;47345;52.334;10.392;2023-04-08T04:30:10;101562.52;;;5.90;87.65
61478;BME280;47345;52.334;10.392;2023-04-08T04:32:43;101568.61;;;5.89;87.62
61478;BME280;47345;52.334;10.392;2023-04-08T04:35:14;101568.54;;;5.88;87.65
61478;BME280;47345;52.334;10.392;2023-04-08T04:37:45;101570.39;;;5.87;87.67
61478;BME280;47345;52.334;10.392;2023-04-08T04:40:18;101574.46;;;5.85;87.69
61478;BME280;47345;52.334;10.392;2023-04-08T04:42:49;101577.20;;;5.85;87.88
61478;BME280;47345;52.334;10.392;2023-04-08T04:45:19;101583.89;;;5.85;87.91
61478;BME280;47345;52.334;10.392;2023-04-08T04:47:50;101588.99;;;5.86;87.92
61478;BME280;47345;52.334;10.392;2023-04-08T04:50:20;101585.09;;;5.87;87.84
61478;BME280;47345;52.334;10.392;2023-04-08T04:52:51;101590.35;;;5.87;87.89
61478;BME280;47345;52.334;10.392;2023-04-08T04:55:22;101591.50;;;5.86;87.93
61478;BME280;47345;52.334;10.392;2023-04-08T04:57:52;101591.30;;;5.86;87.97
61478;BME280;47345;52.334;10.392;2023-04-08T05:00:23;101589.62;;;5.87;88.03
61478;BME280;47345;52.334;10.392;2023-04-08T05:02:54;101590.17;;;5.85;87.88
61478;BME280;47345;52.334;10.392;2023-04-08T05:05:25;101588.50;;;5.85;88.00
61478;BME280;47345;52.334;10.392;2023-04-08T05:07:56;101591.52;;;5.84;88.09
61478;BME280;47345;52.334;10.392;2023-04-08T05:10:26;101596.84;;;5.82;88.00
61478;BME280;47345;52.334;10.392;2023-04-08T05:12:57;101598.36;;;5.81;88.08
61478;BME280;47345;52.334;10.392;2023-04-08T05:15:28;101600.39;;;5.81;88.25
61478;BME280;47345;52.334;10.392;2023-04-08T05:17:59;101603.16;;;5.82;88.26
61478;BME280;47345;52.334;10.392;2023-04-08T05:20:30;101604.22;;;5.84;88.43
61478;BME280;47345;52.334;10.392;2023-04-08T05:23:01;101608.30;;;5.86;88.44
61478;BME280;47345;52.334;10.392;2023-04-08T05:25:31;101609.87;;;5.89;88.44
61478;BME280;47345;52.334;10.392;2023-04-08T05:28:02;101610.33;;;5.92;88.35
61478;BME280;47345;52.334;10.392;2023-04-08T05:30:32;101609.80;;;5.94;88.35
61478;BME280;47345;52.334;10.392;2023-04-08T05:33:04;101614.16;;;5.95;88.27
61478;BME280;47345;52.334;10.392;2023-04-08T05:35:35;101615.45;;;5.95;88.20
61478;BME280;47345;52.334;10.392;2023-04-08T05:38:06;101616.60;;;5.94;88.22
61478;BME280;47345;52.334;10.392;2023-04-08T05:40:37;101620.91;;;5.95;88.39
61478;BME280;47345;52.334;10.392;2023-04-08T05:43:07;101619.50;;;5.94;88.43
61478;BME280;47345;52.334;10.392;2023-04-08T05:45:38;101622.28;;;5.96;88.41
61478;BME280;47345;52.334;10.392;2023-04-08T05:48:09;101619.45;;;5.97;88.45
61478;BME280;47345;52.334;10.392;2023-04-08T05:50:39;101621.80;;;6.00;88.47
61478;BME280;47345;52.334;10.392;2023-04-08T05:53:11;101620.42;;;6.02;88.39
61478;BME280;47345;52.334;10.392;2023-04-08T05:55:41;101621.94;;;6.03;88.31
61478;BME280;47345;52.334;10.392;2023-04-08T05:58:12;101625.57;;;6.03;88.31
61478;BME280;47345;52.334;10.392;2023-04-08T06:00:43;101627.76;;;6.04;88.38
61478;BME280;47345;52.334;10.392;2023-04-08T06:03:14;101629.87;;;6.05;88.36
61478;BME280;47345;52.334;10.392;2023-04-08T06:05:49;101628.70;;;6.06;88.28
61478;BME280;47345;52.334;10.392;2023-04-08T06:08:19;101632.05;;;6.05;88.36
61478;BME280;47345;52.334;10.392;2023-04-08T06:10:51;101635.83;;;6.03;88.32
61478;BME280;47345;52.334;10.392;2023-04-08T06:13:22;101644.15;;;6.03;88.52
61478;BME280;47345;52.334;10.392;2023-04-08T06:15:54;101646.94;;;6.02;88.52
61478;BME280;47345;52.334;10.392;2023-04-08T06:18:24;101652.10;;;6.03;88.71
61478;BME280;47345;52.334;10.392;2023-04-08T06:20:58;101653.60;;;6.05;88.70
61478;BME280;47345;52.334;10.392;2023-04-08T06:23:28;101660.71;;;6.06;88.80
61478;BME280;47345;52.334;10.392;2023-04-08T06:25:59;101659.85;;;6.08;88.79
61478;BME280;47345;52.334;10.392;2023-04-08T06:28:30;101661.02;;;6.09;88.74
61478;BME280;47345;52.334;10.392;2023-04-08T06:31:02;101661.45;;;6.10;88.58
61478;BME280;47345;52.334;10.392;2023-04-08T06:33:32;101665.04;;;6.10;88.75
61478;BME280;47345;52.334;10.392;2023-04-08T06:36:04;101664.61;;;6.09;88.72
61478;BME280;47345;52.334;10.392;2023-04-08T06:38:34;101665.08;;;6.08;88.75
61478;BME280;47345;52.334;10.392;2023-04-08T06:41:06;101666.66;;;6.07;88.97
61478;BME280;47345;52.334;10.392;2023-04-08T06:43:36;101667.48;;;6.08;89.12
61478;BME280;47345;52.334;10.392;2023-04-08T06:46:07;101671.48;;;6.09;89.10
61478;BME280;47345;52.334;10.392;2023-04-08T06:48:37;101676.08;;;6.10;89.09
61478;BME280;47345;52.334;10.392;2023-04-08T06:51:09;101673.79;;;6.10;88.99
61478;BME280;47345;52.334;10.392;2023-04-08T06:53:40;101676.68;;;6.10;89.10
61478;BME280;47345;52.334;10.392;2023-04-08T06:56:11;101677.61;;;6.11;89.26
61478;BME280;47345;52.334;10.392;2023-04-08T06:58:41;101688.27;;;6.13;89.16
61478;BME280;47345;52.334;10.392;2023-04-08T07:01:12;101688.94;;;6.14;89.10
61478;BME280;47345;52.334;10.392;2023-04-08T07:03:44;101694.71;;;6.14;89.22
61478;BME280;47345;52.334;10.392;2023-04-08T07:06:15;101695.92;;;6.13;89.24
61478;BME280;47345;52.334;10.392;2023-04-08T07:08:45;101692.54;;;6.10;89.33
61478;BME280;47345;52.334;10.392;2023-04-08T07:11:16;101695.60;;;6.11;89.51
61478;BME280;47345;52.334;10.392;2023-04-08T07:13:47;101693.20;;;6.11;89.62
61478;BME280;47345;52.334;10.392;2023-04-08T07:16:17;101696.36;;;6.12;89.61
61478;BME280;47345;52.334;10.392;2023-04-08T07:18:48;101694.67;;;6.13;89.75
61478;BME280;47345;52.334;10.392;2023-04-08T07:21:20;101696.52;;;6.12;89.79
61478;BME280;47345;52.334;10.392;2023-04-08T07:23:51;101697.92;;;6.12;89.83
61478;BME280;47345;52.334;10.392;2023-04-08T07:26:21;101693.12;;;6.15;89.99
61478;BME280;47345;52.334;10.392;2023-04-08T07:28:51;101694.16;;;6.19;90.08
61478;BME280;47345;52.334;10.392;2023-04-08T07:31:22;101691.48;;;6.27;90.17
61478;BME280;47345;52.334;10.392;2023-04-08T07:33:53;101691.15;;;6.31;89.83
61478;BME280;47345;52.334;10.392;2023-04-08T07:36:24;101694.91;;;6.36;89.69
61478;BME280;47345;52.334;10.392;2023-04-08T07:38:54;101698.14;;;6.40;89.72
61478;BME280;47345;52.334;10.392;2023-04-08T07:41:25;101706.04;;;6.44;89.58
61478;BME280;47345;52.334;10.392;2023-04-08T07:43:55;101708.71;;;6.44;89.24
61478;BME280;47345;52.334;10.392;2023-04-08T07:46:26;101710.25;;;6.45;89.35
61478;BME280;47345;52.334;10.392;2023-04-08T07:48:57;101712.86;;;6.50;89.59
61478;BME280;47345;52.334;10.392;2023-04-08T07:51:27;101715.77;;;6.54;89.54
61478;BME280;47345;52.334;10.392;2023-04-08T07:53:58;101716.52;;;6.54;89.21
61478;BME280;47345;52.334;10.392;2023-04-08T07:56:29;101718.47;;;6.48;88.93
61478;BME280;47345;52.334;10.392;2023-04-08T07:59:00;101711.05;;;6.44;88.95
61478;BME280;47345;52.334;10.392;2023-04-08T08:01:30;101718.12;;;6.42;89.12
61478;BME280;47345;52.334;10.392;2023-04-08T08:04:03;101713.30;;;6.44;89.19
61478;BME280;47345;52.334;10.392;2023-04-08T08:06:34;101712.17;;;6.44;89.10
61478;BME280;47345;52.334;10.392;2023-04-08T08:09:05;101716.67;;;6.46;89.36
61478;BME280;47345;52.334;10.392;2023-04-08T08:11:36;101720.29;;;6.50;89.42
61478;BME280;47345;52.334;10.392;2023-04-08T08:14:06;101719.89;;;6.51;89.39
61478;BME280;47345;52.334;10.392;2023-04-08T08:16:37;101719.66;;;6.58;89.60
61478;BME280;47345;52.334;10.392;2023-04-08T08:19:07;101721.95;;;6.66;89.66
61478;BME280;47345;52.334;10.392;2023-04-08T08:21:38;101733.08;;;6.72;89.43
61478;BME280;47345;52.334;10.392;2023-04-08T08:24:09;101742.59;;;6.75;89.10
61478;BME280;47345;52.334;10.392;2023-04-08T08:26:40;101746.15;;;6.77;88.80
61478;BME280;47345;52.334;10.392;2023-04-08T08:29:13;101746.35;;;6.77;88.63
61478;BME280;47345;52.334;10.392;2023-04-08T08:31:44;101744.38;;;6.77;88.66
61478;BME280;47345;52.334;10.392;2023-04-08T08:34:16;101749.18;;;6.78;88.33
61478;BME280;47345;52.334;10.392;2023-04-08T08:36:47;101749.84;;;6.77;88.36
61478;BME280;47345;52.334;10.392;2023-04-08T08:39:17;101753.48;;;6.78;88.18
61478;BME280;47345;52.334;10.392;2023-04-08T08:41:48;101757.94;;;6.77;88.22
61478;BME280;47345;52.334;10.392;2023-04-08T08:44:18;101763.23;;;6.75;88.11
61478;BME280;47345;52.334;10.392;2023-04-08T08:46:49;101762.23;;;6.72;88.28
61478;BME280;47345;52.334;10.392;2023-04-08T08:49:20;101756.80;;;6.67;88.16
61478;BME280;47345;52.334;10.392;2023-04-08T08:51:53;101764.52;;;6.68;88.33
61478;BME280;47345;52.334;10.392;2023-04-08T08:54:24;101770.96;;;6.67;88.35
61478;BME280;47345;52.334;10.392;2023-04-08T08:56:55;101770.60;;;6.67;88.42
61478;BME280;47345;52.334;10.392;2023-04-08T08:59:25;101770.42;;;6.70;88.81
61478;BME280;47345;52.334;10.392;2023-04-08T09:01:56;101769.09;;;6.73;88.74
61478;BME280;47345;52.334;10.392;2023-04-08T09:04:27;101772.91;;;6.74;88.73
61478;BME280;47345;52.334;10.392;2023-04-08T09:07:10;101776.91;;;6.74;88.48
61478;BME280;47345;52.334;10.392;2023-04-08T09:09:50;101780.04;;;6.74;88.58
61478;BME280;47345;52.334;10.392;2023-04-08T09:12:21;101776.95;;;6.76;88.59
61478;BME280;47345;52.334;10.392;2023-04-08T09:15:04;101771.82;;;6.78;88.72
61478;BME280;47345;52.334;10.392;2023-04-08T09:17:36;101774.15;;;6.84;88.73
61478;BME280;47345;52.334;10.392;2023-04-08T09:20:09;101784.75;;;6.88;88.38
61478;BME280;47345;52.334;10.392;2023-04-08T09:22:58;101785.86;;;6.91;88.29
61478;BME280;47345;52.334;10.392;2023-04-08T09:25:30;101780.13;;;6.94;88.30
61478;BME280;47345;52.334;10.392;2023-04-08T09:28:01;101787.42;;;7.00;88.31
61478;BME280;47345;52.334;10.392;2023-04-08T09:30:32;101790.64;;;7.02;87.66
61478;BME280;47345;52.334;10.392;2023-04-08T09:33:03;101796.66;;;7.02;87.60
61478;BME280;47345;52.334;10.392;2023-04-08T09:35:36;101797.94;;;7.01;87.72
61478;BME280;47345;52.334;10.392;2023-04-08T09:38:06;101802.12;;;7.01;87.68
61478;BME280;47345;52.334;10.392;2023-04-08T09:40:38;101807.73;;;7.01;87.82
61478;BME280;47345;52.334;10.392;2023-04-08T09:43:12;101806.50;;;7.01;87.85
61478;BME280;47345;52.334;10.392;2023-04-08T09:45:43;101810.09;;;7.03;88.09
61478;BME280;47345;52.334;10.392;2023-04-08T09:48:21;101817.25;;;7.04;87.61
61478;BME280;47345;52.334;10.392;2023-04-08T09:50:52;101819.55;;;7.04;87.50
61478;BME280;47345;52.334;10.392;2023-04-08T09:53:32;101814.04;;;7.03;87.55
61478;BME280;47345;52.334;10.392;2023-04-08T09:56:09;101816.13;;;7.03;87.76
61478;BME280;47345;52.334;10.392;2023-04-08T09:58:48;101814.24;;;7.03;87.76
61478;BME280;47345;52.334;10.392;2023-04-08T10:01:27;101811.42;;;7.04;87.91
61478;BME280;47345;52.334;10.392;2023-04-08T10:03:58;101813.77;;;7.08;88.07
61478;BME280;47345;52.334;10.392;2023-04-08T10:06:31;101813.52;;;7.10;87.98
61478;BME280;47345;52.334;10.392;2023-04-08T10:09:04;101815.83;;;7.09;87.40
61478;BME280;47345;52.334;10.392;2023-04-08T10:11:36;101812.86;;;7.08;87.67
61478;BME280;47345;52.334;10.392;2023-04-08T10:14:07;101810.64;;;7.06;87.95
61478;BME280;47345;52.334;10.392;2023-04-08T10:16:39;101811.02;;;7.12;88.24
61478;BME280;47345;52.334;10.392;2023-04-08T10:25:31;101816.94;;;7.09;88.05
61478;BME280;47345;52.334;10.392;2023-04-08T10:30:52;101820.87;;;7.10;88.43
61478;BME280;47345;52.334;10.392;2023-04-08T10:33:30;101824.95;;;7.10;88.42
61478;BME280;47345;52.334;10.392;2023-04-08T10:36:09;101826.75;;;7.07;88.40
61478;BME280;47345;52.334;10.392;2023-04-08T10:38:40;101831.98;;;7.05;88.59
61478;BME280;47345;52.334;10.392;2023-04-08T10:41:11;101835.27;;;7.02;88.86
61478;BME280;47345;52.334;10.392;2023-04-08T10:43:47;101832.98;;;6.99;88.92
61478;BME280;47345;52.334;10.392;2023-04-08T10:46:18;101833.15;;;6.99;89.07
61478;BME280;47345;52.334;10.392;2023-04-08T10:49:00;101835.19;;;6.99;89.01
61478;BME280;47345;52.334;10.392;2023-04-08T10:51:32;101834.70;;;7.02;89.12
61478;BME280;47345;52.334;10.392;2023-04-08T10:54:14;101827.36;;;7.06;89.13
61478;BME280;47345;52.334;10.392;2023-04-08T10:56:47;101832.48;;;7.11;88.94
61478;BME280;47345;52.334;10.392;2023-04-08T10:59:27;101833.92;;;7.13;88.92
61478;BME280;47345;52.334;10.392;2023-04-08T11:01:58;101835.12;;;7.17;88.80
61478;BME280;47345;52.334;10.392;2023-04-08T11:04:31;101841.99;;;7.23;88.93
61478;BME280;47345;52.334;10.392;2023-04-08T11:07:05;101839.32;;;7.24;88.54
61478;BME280;47345;52.334;10.392;2023-04-08T11:09:37;101841.91;;;7.26;88.73
61478;BME280;47345;52.334;10.392;2023-04-08T11:12:09;101843.52;;;7.28;88.81
61478;BME280;47345;52.334;10.392;2023-04-08T11:14:42;101843.80;;;7.28;88.89
61478;BME280;47345;52.334;10.392;2023-04-08T11:17:15;101844.71;;;7.28;89.05
61478;BME280;47345;52.334;10.392;2023-04-08T11:19:46;101849.70;;;7.26;89.03
61478;BME280;47345;52.334;10.392;2023-04-08T11:22:17;101848.53;;;7.23;89.24
61478;BME280;47345;52.334;10.392;2023-04-08T11:24:48;101852.15;;;7.21;89.46
61478;BME280;47345;52.334;10.392;2023-04-08T11:27:19;101854.63;;;7.20;89.60
61478;BME280;47345;52.334;10.392;2023-04-08T11:29:51;101853.36;;;7.20;89.88
61478;BME280;47345;52.334;10.392;2023-04-08T11:32:23;101847.22;;;7.21;89.92
61478;BME280;47345;52.334;10.392;2023-04-08T11:34:54;101845.84;;;7.23;90.06
61478;BME280;47345;52.334;10.392;2023-04-08T11:37:32;101847.97;;;7.25;90.21
61478;BME280;47345;52.334;10.392;2023-04-08T11:40:09;101852.15;;;7.29;90.17
61478;BME280;47345;52.334;10.392;2023-04-08T11:42:41;101846.13;;;7.30;90.09
61478;BME280;47345;52.334;10.392;2023-04-08T11:45:15;101851.27;;;7.31;89.75
61478;BME280;47345;52.334;10.392;2023-04-08T11:47:48;101844.46;;;7.31;89.48
61478;BME280;47345;52.334;10.392;2023-04-08T11:50:24;101835.81;;;7.32;89.71
61478;BME280;47345;52.334;10.392;2023-04-08T11:52:58;101842.79;;;7.38;89.85
61478;BME280;47345;52.334;10.392;2023-04-08T11:55:29;101846.01;;;7.42;89.34
61478;BME280;47345;52.334;10.392;2023-04-08T11:58:04;101844.96;;;7.44;89.53
61478;BME280;47345;52.334;10.392;2023-04-08T12:00:36;101841.78;;;7.48;89.42
61478;BME280;47345;52.334;10.392;2023-04-08T12:03:07;101838.84;;;7.54;89.18
61478;BME280;47345;52.334;10.392;2023-04-08T12:05:38;101840.58;;;7.61;89.16
61478;BME280;47345;52.334;10.392;2023-04-08T12:08:09;101837.04;;;7.69;88.99
61478;BME280;47345;52.334;10.392;2023-04-08T12:10:40;101837.73;;;7.78;88.87
61478;BME280;47345;52.334;10.392;2023-04-08T12:13:10;101835.45;;;7.86;88.36
61478;BME280;47345;52.334;10.392;2023-04-08T12:15:40;101842.10;;;7.94;88.27
61478;BME280;47345;52.334;10.392;2023-04-08T12:18:11;101844.88;;;8.02;88.05
61478;BME280;47345;52.334;10.392;2023-04-08T12:20:41;101845.19;;;8.09;87.70
61478;BME280;47345;52.334;10.392;2023-04-08T12:23:11;101844.16;;;8.17;87.44
61478;BME280;47345;52.334;10.392;2023-04-08T12:25:42;101841.40;;;8.24;86.97
61478;BME280;47345;52.334;10.392;2023-04-08T12:28:13;101845.59;;;8.31;86.76
61478;BME280;47345;52.334;10.392;2023-04-08T12:30:44;101845.20;;;8.40;86.76
61478;BME280;47345;52.334;10.392;2023-04-08T12:33:15;101850.58;;;8.51;85.86
61478;BME280;47345;52.334;10.392;2023-04-08T12:35:46;101850.99;;;8.56;85.55
61478;BME280;47345;52.334;10.392;2023-04-08T12:38:16;101850.05;;;8.60;85.19
61478;BME280;47345;52.334;10.392;2023-04-08T12:40:46;101849.95;;;8.61;85.33
61478;BME280;47345;52.334;10.392;2023-04-08T12:43:18;101854.77;;;8.63;84.93
61478;BME280;47345;52.334;10.392;2023-04-08T12:45:49;101849.20;;;8.59;84.33
61478;BME280;47345;52.334;10.392;2023-04-08T12:48:19;101846.98;;;8.60;84.28
61478;BME280;47345;52.334;10.392;2023-04-08T12:50:50;101840.26;;;8.56;84.07
61478;BME280;47345;52.334;10.392;2023-04-08T12:53:21;101840.70;;;8.55;83.84
61478;BME280;47345;52.334;10.392;2023-04-08T12:55:51;101840.29;;;8.55;83.75
61478;BME280;47345;52.334;10.392;2023-04-08T12:58:25;101839.38;;;8.58;83.86
61478;BME280;47345;52.334;10.392;2023-04-08T13:00:56;101838.69;;;8.59;84.16
61478;BME280;47345;52.334;10.392;2023-04-08T13:03:26;101835.20;;;8.63;84.11
61478;BME280;47345;52.334;10.392;2023-04-08T13:06:00;101841.11;;;8.67;84.11
61478;BME280;47345;52.334;10.392;2023-04-08T13:08:30;101840.22;;;8.68;83.72
61478;BME280;47345;52.334;10.392;2023-04-08T13:11:01;101839.67;;;8.68;83.87
61478;BME280;47345;52.334;10.392;2023-04-08T13:13:32;101836.46;;;8.71;84.01
61478;BME280;47345;52.334;10.392;2023-04-08T13:16:02;101837.84;;;8.75;83.87
61478;BME280;47345;52.334;10.392;2023-04-08T13:18:33;101838.40;;;8.83;83.89
61478;BME280;47345;52.334;10.392;2023-04-08T13:21:05;101840.13;;;8.93;83.91
61478;BME280;47345;52.334;10.392;2023-04-08T13:23:36;101841.02;;;8.96;83.24
61478;BME280;47345;52.334;10.392;2023-04-08T13:26:07;101842.27;;;8.98;82.82